Pocahontas, Missouri
Current Conditions -  °F | °C
As of 4:53 PM on Thursday 20 Nov 2014 (Local Time) from KCGI Reporting Station
Clear Clear  
Wind Chill: 36°   Ceiling: Unl
Heat Index: 39°   Visibility: 10mi
Dew Point: 25°   Wind: 5mph
Humidity: 57%   Direction: 130°SE
Pressure: 30.22"   Gusts: NA
Location:  37.5°N, 89.64°W
Report Text: KCGI 202253Z AUTO 13004KT 10SM CLR 04/M04 A3022 RMK AO2 SLP235 T00391039 TSNO
Loading
Personal Weather Stations






























Interactive Weather Map New forecast layout! Learn more

10-Day Weather Forecast

Advertisements
Track Severe Weather on mobile